Flight Track Log - Related Links

Times and Time Zones

All times are in EDT time to prevent confusion due to time zone crossing. See the SWA1377 flight status page for this flight to view local times or setup timezone preferences in your user account.

Time Position Orientation Groundspeed Altitude Reporting Facility
EDT Latitude Longitude Course Direction KTS MPH feet Rate Location/Type
Fri 05:55:52 PM 36.0842 -115.2747 277° West 246 283 6,100  Level Los Angeles Center
Fri 05:56:12 PM 36.1014 -115.2872 330° Northwest 241 277 7,000 2,561 Climbing Los Angeles Center
Fri 05:57:14 PM 36.1639 -115.2697 13° North 267 307 9,600 1,984 Climbing Los Angeles Center
Fri 05:58:16 PM 36.1950 -115.1767 67° East 303 349 11,100 1,887 Climbing Los Angeles Center
Fri 05:59:18 PM 36.1972 -115.0525 89° East 359 413 13,500 2,613 Climbing Los Angeles Center
Fri 06:00:00 PM 36.2090 -114.0141 73° East  Level FlightAware Approximate
Fri 06:00:20 PM 36.1986 -114.9225 89° East 376 433 16,500  Level Los Angeles Center
Fri 06:01:22 PM 36.1997 -114.7628 89° East 386 444 20,100 2,855 Climbing Los Angeles Center
Fri 06:02:24 PM 36.1978 -114.6256 91° East 398 458 22,400 2,129 Climbing Los Angeles Center
Fri 06:03:26 PM 36.1956 -114.4814 91° East 415 478 24,500 1,968 Climbing Los Angeles Center
Fri 06:04:29 PM 36.1936 -114.3328 91° East 428 493 26,500 1,728 Climbing Los Angeles Center
Fri 06:05:31 PM 36.1981 -114.1817 88° East 437 503 28,100 1,452 Climbing Los Angeles Center
Fri 06:06:33 PM 36.2197 -114.0272 80° East 450 518 29,500 1,839 Climbing Los Angeles Center
Fri 06:07:35 PM 36.2406 -113.8417 82° East 455 524 31,900 1,984 Climbing Los Angeles Center
Fri 06:08:37 PM 36.2592 -113.6900 81° East 448 516 33,600 1,403 Climbing Los Angeles Center
Fri 06:09:39 PM 36.2756 -113.5383 82° East 445 512 34,800 1,065 Climbing Los Angeles Center
Fri 06:10:41 PM 36.2936 -113.3836 82° East 451 519 35,800 968 Climbing Los Angeles Center
Fri 06:11:43 PM 36.3286 -113.2325 74° East 452 520 36,800 581 Climbing Los Angeles Center
Fri 06:12:45 PM 36.3739 -113.0881 69° East 453 521 37,000 96 Climbing Los Angeles Center
Fri 06:13:48 PM 36.4294 -112.9156 68° East 452 520 37,000  Level Los Angeles Center
Fri 06:14:50 PM 36.4750 -112.7719 68° East 451 519 37,000  Level Los Angeles Center
Fri 06:15:52 PM 36.5197 -112.6283 69° East 449 517 37,000  Level Los Angeles Center
Fri 06:16:54 PM 36.5647 -112.4842 69° East 449 517 37,000  Level Los Angeles Center
Fri 06:17:56 PM 36.6103 -112.3389 69° East 452 520 37,000  Level Los Angeles Center
Fri 06:18:58 PM 36.6644 -112.1631 69° East 454 522 37,000  Level Los Angeles Center
Fri 06:19:28 PM 36.6831 -112.1050 68° East 455 524 37,000  Level Denver Center
Fri 06:20:30 PM 36.7281 -111.9603 69° East 452 520 37,000  Level Denver Center
Fri 06:21:33 PM 36.7722 -111.8128 69° East 455 524 37,000  Level Denver Center
Fri 06:22:35 PM 36.8269 -111.6381 69° East 454 522 37,000  Level Denver Center
Fri 06:23:37 PM 36.8714 -111.4917 69° East 453 521 37,000  Level Denver Center
Fri 06:24:39 PM 36.9164 -111.3433 69° East 457 526 37,000  Level Denver Center
Fri 06:25:41 PM 36.9578 -111.1981 70° East 451 519 37,000  Level Denver Center
Fri 06:26:43 PM 37.0025 -111.0492 69° East 458 527 37,000  Level Denver Center
Fri 06:27:45 PM 37.0558 -110.8694 70° East 461 531 37,000  Level Denver Center
Fri 06:28:47 PM 37.0994 -110.7192 70° East 461 531 37,000  Level Denver Center
Fri 06:29:49 PM 37.1433 -110.5678 70° East 465 535 37,000  Level Denver Center
Fri 06:30:51 PM 37.1867 -110.4178 70° East 461 531 37,000  Level Denver Center
Fri 06:31:53 PM 37.2314 -110.2658 70° East 464 534 37,000  Level Denver Center
Fri 06:32:55 PM 37.2783 -110.1017 70° East 459 528 37,000  Level Denver Center
Fri 06:33:57 PM 37.3189 -109.9567 71° East 458 527 37,000  Level Denver Center
Fri 06:34:59 PM 37.3667 -109.7875 70° East 459 528 37,000  Level Denver Center
Fri 06:36:00 PM 37.4094 -109.6403 70° East 465 535 37,000  Level Denver Center
Fri 06:37:02 PM 37.4572 -109.4686 71° East 464 534 37,000  Level Denver Center
Fri 06:38:04 PM 37.4989 -109.3200 70° East 468 539 37,000  Level Denver Center
Fri 06:39:06 PM 37.5472 -109.1464 71° East 469 540 37,000  Level Denver Center
Fri 06:40:08 PM 37.5881 -108.9961 71° East 473 544 37,000  Level Denver Center
Fri 06:41:10 PM 37.6372 -108.8206 70° East 477 549 37,000  Level Denver Center
Fri 06:42:12 PM 37.6778 -108.6689 71° East 477 549 37,000  Level Denver Center
Fri 06:43:14 PM 37.7186 -108.5181 71° East 475 547 37,000  Level Denver Center
Fri 06:44:16 PM 37.7653 -108.3433 71° East 472 543 37,000  Level Denver Center
Fri 06:45:18 PM 37.8067 -108.1925 71° East 472 543 37,000  Level Denver Center
Fri 06:46:20 PM 37.8522 -108.0169 72° East 470 541 37,000  Level Denver Center
Fri 06:47:22 PM 37.8925 -107.8675 71° East 470 541 37,000  Level Denver Center
Fri 06:48:24 PM 37.9386 -107.6914 72° East 471 542 37,000  Level Denver Center
Fri 06:49:25 PM 37.9781 -107.5397 72° East 473 544 37,000  Level Denver Center
Fri 06:50:27 PM 38.0236 -107.3625 72° East 472 543 37,000  Level Denver Center
Fri 06:51:29 PM 38.0619 -107.2106 72° East 472 543 37,000  Level Denver Center
Fri 06:52:31 PM 38.1064 -107.0433 71° East 472 543 37,000  Level Denver Center
Fri 06:53:33 PM 38.1464 -106.8844 72° East 471 542 37,000  Level Denver Center
Fri 06:54:35 PM 38.1881 -106.7158 72° East 469 540 37,000  Level Denver Center
Fri 06:55:37 PM 38.2267 -106.5642 72° East 470 541 37,000  Level Denver Center
Fri 06:56:39 PM 38.2644 -106.4108 73° East 469 540 37,000  Level Denver Center
Fri 06:57:41 PM 38.3039 -106.2506 73° East 474 545 37,000  Level Denver Center
Fri 06:58:43 PM 38.3478 -106.0731 72° East 479 551 37,000  Level Denver Center
Fri 06:59:44 PM 38.3922 -105.8922 73° East 479 551 37,000  Level Denver Center
Fri 07:00:46 PM 38.4311 -105.7289 73° East 480 552 37,000  Level Denver Center
Fri 07:02:00 PM 38.4703 -105.5661 73° East 478 550 37,000 44 Level Denver Center
Fri 07:03:03 PM 38.5175 -105.3725 73° East 485 558 37,100 677 Climbing Denver Center
Fri 07:04:04 PM 38.5569 -105.2019 73° East 496 571 38,400 927 Climbing Denver Center
Fri 07:05:06 PM 38.6028 -105.0086 73° East 486 559 39,000 290 Climbing Denver Center
Fri 07:06:08 PM 38.6408 -104.8419 74° East 485 558 39,000  Level Denver Center
Fri 07:07:10 PM 38.6792 -104.6781 73° East 481 554 39,000  Level Denver Center
Fri 07:08:12 PM 38.7169 -104.5172 73° East 473 544 39,000  Level Denver Center
Fri 07:09:14 PM 38.7539 -104.3547 74° East 473 544 39,000  Level Denver Center
Fri 07:10:16 PM 38.7908 -104.1906 74° East 476 548 39,000  Level Denver Center
Fri 07:11:18 PM 38.8319 -104.0072 74° East 476 548 39,000  Level Denver Center
Fri 07:12:20 PM 38.8711 -103.8319 74° East 483 556 39,000  Level Denver Center
Fri 07:13:22 PM 38.9092 -103.6614 74° East 492 566 39,000  Level Denver Center
Fri 07:14:24 PM 38.9467 -103.4919 74° East 492 566 39,000  Level Denver Center
Fri 07:15:26 PM 38.9825 -103.3225 75° East 489 563 39,000  Level Denver Center
Fri 07:16:28 PM 39.0206 -103.1500 74° East 496 571 39,000  Level Denver Center
Fri 07:17:30 PM 39.0561 -102.9803 75° East 491 565 39,000  Level Denver Center
Fri 07:18:32 PM 39.1008 -102.7786 74° East 497 572 39,000  Level Denver Center
Fri 07:19:34 PM 39.1347 -102.6133 75° East 496 571 39,000  Level Denver Center
Fri 07:20:36 PM 39.1686 -102.4492 75° East 496 571 39,000  Level Denver Center
Fri 07:21:38 PM 39.2092 -102.2550 75° East 500 575 39,000  Level Denver Center
Fri 07:22:40 PM 39.2439 -102.0903 75° East 498 573 39,000  Level Denver Center
Fri 07:23:42 PM 39.2836 -101.8947 75° East 503 579 39,000  Level Denver Center
Fri 07:24:44 PM 39.3175 -101.7269 75° East 506 582 39,000  Level Denver Center
Fri 07:25:46 PM 39.3564 -101.5356 75° East 511 588 39,000  Level Denver Center
Fri 07:26:48 PM 39.3906 -101.3642 75° East 513 590 39,000  Level Denver Center
Fri 07:27:50 PM 39.4303 -101.1653 75° East 513 590 39,000  Level Denver Center
Fri 07:28:52 PM 39.4631 -100.9939 76° East 513 590 39,000  Level Denver Center
Fri 07:29:54 PM 39.5008 -100.7944 76° East 513 590 39,000  Level Denver Center
Fri 07:30:56 PM 39.5336 -100.6253 76° East 509 586 39,000  Level Denver Center
Fri 07:31:58 PM 39.5719 -100.4297 76° East 505 581 39,000  Level Denver Center
Fri 07:33:00 PM 39.6028 -100.2603 77° East 505 581 39,000  Level Denver Center
Fri 07:34:02 PM 39.6397 -100.0639 76° East 504 580 39,000  Level Denver Center
Fri 07:35:04 PM 39.6708 -99.8967 76° East 505 581 39,000  Level Denver Center
Fri 07:36:06 PM 39.7022 -99.7222 77° East 498 573 39,000  Level Denver Center
Fri 07:37:08 PM 39.7403 -99.5131 77° East 496 571 39,000  Level Denver Center
Fri 07:38:10 PM 39.7728 -99.3397 76° East 497 572 39,000  Level Denver Center
Fri 07:39:13 PM 39.8025 -99.1658 77° East 495 570 39,000  Level Denver Center
Fri 07:40:15 PM 39.8342 -98.9911 77° East 497 572 39,000  Level Denver Center
Fri 07:41:28 PM 39.8703 -98.7819 77° East 497 572 39,000  Level Minneapolis Center
Fri 07:42:30 PM 39.9008 -98.6061 77° East 499 574 39,000  Level Minneapolis Center
Fri 07:43:32 PM 39.9358 -98.3947 78° East 500 575 39,000  Level Minneapolis Center
Fri 07:44:34 PM 39.9669 -98.2172 77° East 502 578 39,000  Level Minneapolis Center
Fri 07:45:36 PM 40.0058 -98.0433 74° East 506 582 39,000  Level Minneapolis Center
Fri 07:46:49 PM 40.1028 -97.9156 45° Northeast 502 578 39,000  Level Minneapolis Center
Fri 07:47:52 PM 40.2367 -97.7939 35° Northeast 493 567 39,000  Level Minneapolis Center
Fri 07:49:00 PM 40.2723 -97.6169 75° East  Level Estimated
Fri 07:49:55 PM 40.4828 -97.5683 75° East 491 565 39,000  Level Minneapolis Center
Fri 07:50:57 PM 40.5958 -97.4686 34° Northeast 490 564 39,000  Level Minneapolis Center
Fri 07:51:59 PM 40.7069 -97.3694 34° Northeast 487 560 39,000  Level Minneapolis Center
Fri 07:53:01 PM 40.8114 -97.2778 34° Northeast 484 557 39,000  Level Minneapolis Center
Fri 07:54:03 PM 40.9236 -97.1800 33° Northeast 482 555 39,000  Level Minneapolis Center
Fri 07:55:04 PM 41.0592 -97.0631 33° Northeast 483 556 39,000  Level Minneapolis Center
Fri 07:56:06 PM 41.1714 -96.9653 33° Northeast 482 555 39,000  Level Minneapolis Center
Fri 07:57:08 PM 41.2619 -96.8861 33° Northeast 483 556 39,000  Level Minneapolis Center
Fri 07:58:10 PM 41.4000 -96.7672 33° Northeast 487 560 39,000  Level Minneapolis Center
Fri 07:59:12 PM 41.4839 -96.6300 51° Northeast 497 572 39,000  Level Minneapolis Center
Fri 08:00:13 PM 41.4836 -96.4464 90° East 495 570 39,000  Level Minneapolis Center
Fri 08:01:15 PM 41.4794 -96.2558 92° East 499 574 39,000  Level Minneapolis Center
Fri 08:02:17 PM 41.4767 -96.0711 91° East 498 573 39,000  Level Minneapolis Center
Fri 08:03:19 PM 41.4728 -95.8856 92° East 500 575 39,000  Level Minneapolis Center
Fri 08:04:21 PM 41.4675 -95.6633 92° East 499 574 39,000  Level Minneapolis Center
Fri 08:05:23 PM 41.4622 -95.5075 93° East 498 573 39,000  Level Minneapolis Center
Fri 08:06:25 PM 41.4575 -95.2856 92° East 499 574 39,000  Level Minneapolis Center
Fri 08:07:26 PM 41.4525 -95.0975 92° East 505 581 39,000  Level Minneapolis Center
Fri 08:08:28 PM 41.4472 -94.9089 92° East 508 585 39,000  Level Minneapolis Center
Fri 08:09:30 PM 41.4400 -94.7197 93° East 512 589 39,000  Level Minneapolis Center
Fri 08:10:32 PM 41.4331 -94.5311 93° East 512 589 39,000  Level Minneapolis Center
Fri 08:11:34 PM 41.4269 -94.3422 92° East 510 587 39,000  Level Minneapolis Center
Fri 08:12:35 PM 41.4183 -94.1617 94° East 508 585 39,000  Level Minneapolis Center
Fri 08:13:37 PM 41.4097 -93.9383 93° East 506 582 39,000  Level Minneapolis Center
Fri 08:14:39 PM 41.4031 -93.7533 93° East 504 580 39,000  Level Minneapolis Center
Fri 08:15:41 PM 41.3950 -93.5692 93° East 501 577 39,000  Level Minneapolis Center
Fri 08:16:42 PM 41.3889 -93.3844 92° East 502 578 39,000  Level Minneapolis Center
Fri 08:17:44 PM 41.3808 -93.2014 93° East 499 574 39,000  Level Minneapolis Center
Fri 08:18:46 PM 41.3733 -93.0194 93° East 496 571 39,000 -581 Level Minneapolis Center
Fri 08:19:48 PM 41.3625 -92.7981 94° East 498 573 37,800 -1,024 Descending Minneapolis Center
Fri 08:20:49 PM 41.3533 -92.6097 94° East 506 582 36,900 -857 Descending Minneapolis Center
Fri 08:21:19 PM 41.3483 -92.5314 95° East 509 586 36,500 -913 Descending Chicago Center
Fri 08:22:21 PM 41.3389 -92.3319 94° East 506 582 35,500 -968 Descending Chicago Center
Fri 08:23:23 PM 41.3289 -92.1514 94° East 499 574 34,500 -968 Descending Chicago Center
Fri 08:24:25 PM 41.3181 -91.9692 94° East 499 574 33,500 -1,065 Descending Chicago Center
Fri 08:25:27 PM 41.3072 -91.7547 94° East 492 566 32,300 -1,065 Descending Chicago Center
Fri 08:26:29 PM 41.2956 -91.5792 95° East 483 556 31,300 -968 Descending Chicago Center
Fri 08:27:31 PM 41.2850 -91.4025 94° East 483 556 30,300 -968 Descending Chicago Center
Fri 08:28:33 PM 41.2742 -91.2303 95° East 477 549 29,300 -1,016 Descending Chicago Center
Fri 08:29:35 PM 41.2636 -91.0600 95° East 467 537 28,200 -1,645 Descending Chicago Center
Fri 08:30:37 PM 41.2508 -90.8600 95° East 452 520 25,900 -2,032 Descending Chicago Center
Fri 08:31:39 PM 41.2406 -90.6961 95° East 447 514 24,000 -1,258 Descending Chicago Center
Fri 08:32:41 PM 41.2286 -90.5356 96° East 438 504 23,300 -726 Descending Chicago Center
Fri 08:33:43 PM 41.2172 -90.3606 95° East 469 540 22,500 -871 Descending Chicago Center
Fri 08:34:45 PM 41.2039 -90.1856 96° East 473 544 21,500 -1,016 Descending Chicago Center
Fri 08:35:47 PM 41.1914 -90.0117 95° East 470 541 20,400 -1,016 Descending Chicago Center
Fri 08:36:49 PM 41.1800 -89.8433 95° East 458 527 19,400 -968 Descending Chicago Center
Fri 08:37:51 PM 41.1669 -89.6764 96° East 454 522 18,400 -1,065 Descending Chicago Center
Fri 08:38:00 PM 41.1555 -89.6492 96° East  Level FlightAware Approximate
Fri 08:38:53 PM 41.1675 -89.4783 90° East 446 513 17,200  Level Chicago Center
Fri 08:39:54 PM 41.1789 -89.3158 85° East 437 503 16,200 -976 Descending Chicago Center
Fri 08:40:56 PM 41.1878 -89.1592 86° East 430 495 15,200 -1,161 Descending Chicago Center
Fri 08:41:58 PM 41.2292 -89.0267 67° East 402 463 13,800 -1,548 Descending Chicago Center
Fri 08:43:00 PM 41.2831 -88.9078 59° Northeast 382 440 12,000 -1,790 Descending Chicago Center
Fri 08:44:02 PM 41.3344 -88.7919 59° Northeast 370 426 10,100 -968 Descending Chicago Center
Fri 08:45:04 PM 41.3839 -88.6819 59° Northeast 354 407 10,000 -919 Descending Chicago Center
Fri 08:46:06 PM 41.4364 -88.5633 59° Northeast 319 367 8,200 -1,452 Descending Chicago Center
Fri 08:47:08 PM 41.4769 -88.4653 61° Northeast 308 354 7,000 -581 Descending Chicago Center
Fri 08:48:10 PM 41.5042 -88.3603 71° East 298 343 7,000  Level Chicago Center
Fri 08:49:12 PM 41.5314 -88.2586 70° East 295 339 7,000 -290 Level Chicago Center
Fri 08:50:14 PM 41.5544 -88.1686 71° East 273 314 6,400 -829 Descending Chicago Center
Fri 08:51:15 PM 41.5775 -88.0803 71° East 258 297 5,300 -1,024 Descending Chicago Center
Fri 08:52:17 PM 41.5828 -87.9869 86° East 255 293 4,300 -629 Descending Chicago Center
Fri 08:53:19 PM 41.5844 -87.8928 89° East 253 291 4,000 -145 Descending Chicago Center
Fri 08:54:21 PM 41.5847 -87.7942 90° East 233 268 4,000  Level Chicago Center
Fri 08:55:23 PM 41.5858 -87.7178 89° East 215 247 4,000  Level Chicago Center
Fri 08:56:25 PM 41.5833 -87.6428 93° East 208 239 4,000  Level Chicago Center
Fri 08:57:27 PM 41.5669 -87.5689 106° East 208 239 4,000  Level Chicago Center
Fri 08:58:28 PM 41.6036 -87.5189 46° Northeast 199 229 4,000  Level Chicago Center
Fri 08:59:30 PM 41.6397 -87.5500 327° Northwest 173 199 4,000 -97 Level Chicago Center
Fri 09:00:32 PM 41.6747 -87.5981 314° West 158 182 3,800 -532 Descending Chicago Center
Fri 09:01:34 PM 41.7036 -87.6375 314° West 153 176 2,900 -857 Descending Chicago Center
Fri 09:02:03 PM 41.7167 -87.6500 324° Northwest 146 168 2,500 -742 Descending Chicago TRACON
Fri 09:03:03 PM 41.7500 -87.6833 323° Northwest 124 143 1,800 -700 Descending Chicago TRACON
Fri 09:04:03 PM 41.7667 -87.7333 294° West 130 150 1,100 -700 Descending Chicago TRACON

Login

Don't have an account? Register now (free) for customized features, flight alerts, and more!